Time;durP1;ratioP1;P1;durP2;ratioP2;P2;SDS_P1;SDS_P2;PMS_P1;PMS_P2;Temp;Humidity;BMP_temperature;BMP_pressure;BME280_temperature;BME280_humidity;BME280_pressure;Samples;Min_cycle;Max_cycle;Signal;HPM_P1;HPM_P2
2023/08/25 00:00:09;;;;;;;26.63;23.90;;;19.60;99.90;;;;;;5044491;28;20129;-80
2023/08/25 00:02:36;;;;;;;30.27;27.20;;;19.50;99.90;;;;;;5041994;28;20097;-80
2023/08/25 00:05:03;;;;;;;26.73;24.20;;;19.50;99.90;;;;;;5041975;28;20077;-79
2023/08/25 00:07:29;;;;;;;25.77;23.50;;;19.50;99.90;;;;;;5044284;28;20110;-80
2023/08/25 00:09:55;;;;;;;28.63;25.80;;;19.50;99.90;;;;;;5035611;28;20499;-79
2023/08/25 00:12:22;;;;;;;26.52;23.95;;;19.50;99.90;;;;;;5043847;28;20528;-79
2023/08/25 00:14:48;;;;;;;29.92;27.23;;;19.50;99.90;;;;;;5045356;28;20045;-80
2023/08/25 00:17:14;;;;;;;30.08;26.25;;;19.50;99.90;;;;;;5042353;28;20048;-81
2023/08/25 00:19:40;;;;;;;29.50;26.90;;;19.50;99.90;;;;;;5045172;28;20045;-80
2023/08/25 00:22:05;;;;;;;28.15;25.17;;;19.50;99.90;;;;;;5035038;28;20040;-80
2023/08/25 00:24:34;;;;;;;35.00;31.48;;;19.50;99.90;;;;;;5041927;28;20405;-80
2023/08/25 00:27:00;;;;;;;29.92;26.77;;;19.50;99.90;;;;;;5041656;28;20033;-80
2023/08/25 00:29:25;;;;;;;31.45;28.35;;;19.50;99.90;;;;;;5043080;28;20497;-80
2023/08/25 00:31:51;;;;;;;30.25;27.25;;;19.50;99.90;;;;;;5044725;28;20055;-79
2023/08/25 00:34:17;;;;;;;31.38;28.38;;;19.40;99.90;;;;;;5034688;28;20412;-79
2023/08/25 00:36:43;;;;;;;33.67;30.40;;;19.40;99.90;;;;;;5034290;28;20093;-79
2023/08/25 00:39:09;;;;;;;34.65;31.30;;;19.40;99.90;;;;;;5054544;28;20045;-78
2023/08/25 00:41:35;;;;;;;37.63;33.92;;;19.40;99.90;;;;;;5052459;28;20068;-80
2023/08/25 00:44:01;;;;;;;34.40;30.85;;;19.40;99.90;;;;;;5033450;28;20063;-80
2023/08/25 00:46:26;;;;;;;34.40;31.05;;;19.40;99.90;;;;;;5044355;28;20048;-80
2023/08/25 00:48:52;;;;;;;36.55;31.95;;;19.40;99.90;;;;;;5044383;28;20076;-80
2023/08/25 00:51:18;;;;;;;33.33;29.92;;;19.40;99.90;;;;;;5043824;28;20045;-80
2023/08/25 00:53:45;;;;;;;34.83;31.00;;;19.40;99.90;;;;;;5040658;28;20478;-80
2023/08/25 00:56:15;;;;;;;38.90;34.80;;;19.40;99.90;;;;;;5041105;28;20389;-79
2023/08/25 00:58:41;;;;;;;35.80;31.88;;;19.40;99.90;;;;;;5036574;28;20036;-80
2023/08/25 01:01:07;;;;;;;39.38;35.55;;;19.40;99.90;;;;;;5045468;28;20072;-79
2023/08/25 01:03:36;;;;;;;37.38;33.38;;;19.40;99.90;;;;;;5042590;28;20425;-79
2023/08/25 01:06:02;;;;;;;36.67;33.15;;;19.40;99.90;;;;;;5044298;28;20113;-80
2023/08/25 01:08:29;;;;;;;34.28;31.02;;;19.40;99.90;;;;;;5032574;28;20037;-80
2023/08/25 01:11:14;;;;;;;34.30;30.67;;;19.40;99.90;;;;;;5044645;28;20500;-80
2023/08/25 01:14:13;;;;;;;32.95;29.77;;;19.40;99.90;;;;;;5031557;28;20056;-80
2023/08/25 01:17:07;;;;;;;36.83;32.95;;;19.40;99.90;;;;;;5040714;28;20045;-80
2023/08/25 01:19:56;;;;;;;37.50;33.53;;;19.40;99.90;;;;;;5031380;28;20144;-80
2023/08/25 01:23:01;;;;;;;33.35;30.13;;;19.40;99.90;;;;;;5047498;28;20043;-79
2023/08/25 01:25:28;;;;;;;34.38;31.10;;;19.40;99.90;;;;;;5020164;28;20057;-79
2023/08/25 01:27:56;;;;;;;40.45;36.35;;;19.40;99.90;;;;;;5041737;28;20047;-80
2023/08/25 01:30:23;;;;;;;44.85;40.17;;;19.40;99.90;;;;;;5044233;28;20127;-81
2023/08/25 01:32:52;;;;;;;39.35;34.70;;;19.40;99.90;;;;;;5039357;28;20056;-80
2023/08/25 01:35:21;;;;;;;35.88;32.35;;;19.40;99.90;;;;;;5040626;28;20394;-81
2023/08/25 01:38:10;;;;;;;35.17;31.83;;;19.40;99.90;;;;;;5043310;28;20124;-80
2023/08/25 01:40:47;;;;;;;39.70;35.55;;;19.40;99.90;;;;;;5037415;28;20037;-81
2023/08/25 01:43:17;;;;;;;41.25;36.85;;;19.40;99.90;;;;;;5043675;28;20484;-81
2023/08/25 01:45:43;;;;;;;41.13;36.75;;;19.40;99.90;;;;;;5030120;28;20068;-81
2023/08/25 01:48:13;;;;;;;38.80;34.85;;;19.40;99.90;;;;;;5039927;28;20389;-81
2023/08/25 01:50:40;;;;;;;38.83;34.78;;;19.40;99.90;;;;;;5042849;28;20064;-81
2023/08/25 01:53:08;;;;;;;38.67;34.58;;;19.40;99.90;;;;;;5032624;28;20049;-81
2023/08/25 01:55:34;;;;;;;46.47;39.22;;;19.40;99.90;;;;;;5041584;28;20439;-81
2023/08/25 01:58:01;;;;;;;39.88;35.72;;;19.40;99.90;;;;;;5039835;28;20124;-81
2023/08/25 02:00:28;;;;;;;39.75;35.65;;;19.30;99.90;;;;;;5017285;28;20164;-81
2023/08/25 02:02:55;;;;;;;38.88;34.85;;;19.30;99.90;;;;;;5042697;28;20033;-80
2023/08/25 02:05:22;;;;;;;42.65;38.22;;;19.30;99.90;;;;;;5028634;28;20480;-81
2023/08/25 02:07:48;;;;;;;41.20;35.45;;;19.30;99.90;;;;;;5046790;28;20120;-81
2023/08/25 02:10:13;;;;;;;40.13;35.65;;;19.30;99.90;;;;;;5039828;28;20112;-81
2023/08/25 02:12:39;;;;;;;40.60;36.08;;;19.20;99.90;;;;;;5033630;28;20131;-81
2023/08/25 02:15:06;;;;;;;41.42;37.20;;;19.20;99.90;;;;;;5042943;28;20476;-81
2023/08/25 02:17:31;;;;;;;43.38;38.75;;;19.20;99.90;;;;;;5050999;28;20046;-81
2023/08/25 02:19:57;;;;;;;39.92;35.83;;;19.20;99.90;;;;;;5036033;28;20043;-81
2023/08/25 02:22:23;;;;;;;40.35;36.05;;;19.10;99.90;;;;;;5044786;28;20116;-81
2023/08/25 02:24:50;;;;;;;38.28;34.17;;;19.10;99.90;;;;;;5021704;28;20077;-81
2023/08/25 02:27:15;;;;;;;37.75;33.67;;;19.10;99.90;;;;;;5042868;28;20091;-81
2023/08/25 02:29:41;;;;;;;37.53;33.60;;;19.10;99.90;;;;;;5036268;28;20044;-81
2023/08/25 02:32:07;;;;;;;39.78;35.63;;;19.00;99.90;;;;;;5041674;28;20132;-80
2023/08/25 02:34:32;;;;;;;42.38;36.45;;;19.10;99.90;;;;;;5039302;28;20050;-81
2023/08/25 02:36:58;;;;;;;40.60;36.47;;;19.10;99.90;;;;;;5045651;28;20112;-80
2023/08/25 02:39:23;;;;;;;37.67;33.83;;;19.10;99.90;;;;;;5038913;28;20445;-81
2023/08/25 02:41:49;;;;;;;39.03;34.85;;;19.10;99.90;;;;;;5031573;28;20378;-81
2023/08/25 02:44:15;;;;;;;40.00;36.10;;;19.10;99.90;;;;;;5041754;28;20389;-81
2023/08/25 02:46:42;;;;;;;35.97;32.28;;;19.10;99.90;;;;;;5030227;28;20128;-80
2023/08/25 02:49:08;;;;;;;47.17;40.13;;;19.10;99.90;;;;;;5038313;28;20045;-81
2023/08/25 02:51:33;;;;;;;42.75;38.58;;;19.10;99.90;;;;;;5039940;28;20592;-81
2023/08/25 02:53:59;;;;;;;43.42;38.65;;;19.20;99.90;;;;;;5042495;28;20505;-81
2023/08/25 02:56:24;;;;;;;45.25;40.58;;;19.10;99.90;;;;;;5039547;28;20041;-81
2023/08/25 02:58:50;;;;;;;42.25;38.08;;;19.10;99.90;;;;;;5036696;28;20057;-81
2023/08/25 03:01:16;;;;;;;43.80;39.30;;;19.10;99.90;;;;;;5035284;28;20033;-81
2023/08/25 03:03:41;;;;;;;42.65;38.15;;;19.10;99.90;;;;;;5043080;28;20045;-81
2023/08/25 03:06:07;;;;;;;38.88;34.85;;;19.10;99.90;;;;;;5047582;28;20041;-80
2023/08/25 03:08:33;;;;;;;37.60;33.70;;;19.10;99.90;;;;;;5045007;28;20033;-80
2023/08/25 03:11:04;;;;;;;41.78;37.33;;;19.20;99.90;;;;;;5039895;28;20060;-81
2023/08/25 03:13:30;;;;;;;46.30;39.88;;;19.10;99.90;;;;;;5035993;28;20056;-81
2023/08/25 03:15:56;;;;;;;43.17;38.58;;;19.30;99.90;;;;;;5028248;28;20033;-80
2023/08/25 03:18:22;;;;;;;44.25;39.47;;;19.30;99.90;;;;;;5045530;28;20044;-81
2023/08/25 03:20:52;;;;;;;44.63;38.35;;;19.10;99.90;;;;;;5037735;28;20476;-80
2023/08/25 03:23:18;;;;;;;40.42;36.10;;;19.20;99.90;;;;;;5043718;28;20033;-80
2023/08/25 03:25:44;;;;;;;40.67;36.28;;;19.20;99.90;;;;;;5038363;28;20051;-81
2023/08/25 03:28:09;;;;;;;39.58;35.40;;;19.10;99.90;;;;;;5037786;28;20060;-81
2023/08/25 03:30:37;;;;;;;39.55;35.47;;;19.20;99.90;;;;;;5043190;28;20492;-80
2023/08/25 03:33:04;;;;;;;41.08;35.63;;;19.20;99.90;;;;;;5035638;28;20087;-80
2023/08/25 03:35:36;;;;;;;45.10;40.35;;;19.20;99.90;;;;;;5046404;28;20050;-81
2023/08/25 03:38:02;;;;;;;43.72;38.85;;;19.20;99.90;;;;;;5045411;28;20116;-80
2023/08/25 03:40:28;;;;;;;41.15;36.83;;;19.20;99.90;;;;;;5045908;28;20049;-80
2023/08/25 03:42:54;;;;;;;47.28;38.95;;;19.20;99.90;;;;;;5041989;28;20432;-79
2023/08/25 03:45:20;;;;;;;42.03;37.83;;;19.20;99.90;;;;;;5042270;28;20088;-80
2023/08/25 03:47:46;;;;;;;39.35;35.38;;;19.20;99.90;;;;;;5044238;28;20077;-81
2023/08/25 03:50:12;;;;;;;41.72;37.13;;;19.20;99.90;;;;;;5046249;28;20075;-80
2023/08/25 03:52:37;;;;;;;40.05;35.83;;;19.10;99.90;;;;;;5044049;28;20041;-79
2023/08/25 03:55:04;;;;;;;46.22;40.85;;;19.20;99.90;;;;;;5050328;28;20048;-80
2023/08/25 03:57:30;;;;;;;38.88;33.88;;;19.10;99.90;;;;;;5046467;28;20041;-80
2023/08/25 03:59:55;;;;;;;39.15;35.25;;;19.10;99.90;;;;;;5045118;28;20041;-80
2023/08/25 04:02:21;;;;;;;40.35;35.92;;;19.40;99.90;;;;;;5045872;28;20037;-80
2023/08/25 04:04:47;;;;;;;39.95;35.70;;;19.10;99.90;;;;;;5042996;28;20045;-79
2023/08/25 04:07:13;;;;;;;41.47;37.03;;;19.20;99.90;;;;;;5035310;28;20045;-80
2023/08/25 04:09:39;;;;;;;38.40;33.58;;;19.10;99.90;;;;;;5045373;28;20042;-79
2023/08/25 04:12:05;;;;;;;38.88;34.67;;;19.20;99.90;;;;;;5043975;28;20174;-80
2023/08/25 04:14:31;;;;;;;43.58;38.80;;;19.20;99.90;;;;;;5034852;28;20496;-80
2023/08/25 04:16:56;;;;;;;40.05;35.78;;;19.20;99.90;;;;;;5035720;28;20103;-80
2023/08/25 04:19:22;;;;;;;46.65;38.05;;;19.10;99.90;;;;;;5045398;28;20048;-80
2023/08/25 04:21:48;;;;;;;52.05;43.90;;;19.10;99.90;;;;;;5042250;28;20045;-80
2023/08/25 04:24:16;;;;;;;42.40;37.75;;;19.10;99.90;;;;;;5046402;28;20036;-80
2023/08/25 04:26:42;;;;;;;47.47;40.25;;;19.10;99.90;;;;;;5043979;28;20402;-81
2023/08/25 04:29:09;;;;;;;43.25;38.58;;;19.10;99.90;;;;;;5044614;28;20477;-80
2023/08/25 04:31:36;;;;;;;49.88;40.63;;;19.10;99.90;;;;;;5048451;28;20049;-80
2023/08/25 04:34:01;;;;;;;41.65;37.30;;;19.10;99.90;;;;;;5037450;28;20049;-80
2023/08/25 04:36:27;;;;;;;48.58;41.33;;;19.10;99.90;;;;;;5034495;28;20453;-80
2023/08/25 04:38:53;;;;;;;41.45;35.40;;;19.10;99.90;;;;;;5036147;28;20045;-80
2023/08/25 04:41:19;;;;;;;38.90;34.83;;;19.10;99.90;;;;;;5043934;28;20128;-80
2023/08/25 04:43:45;;;;;;;39.63;35.50;;;19.10;99.90;;;;;;5042546;28;20041;-80
2023/08/25 04:46:12;;;;;;;37.92;33.83;;;19.10;99.90;;;;;;5043298;28;20468;-79
2023/08/25 04:48:38;;;;;;;38.53;34.40;;;19.10;99.90;;;;;;5038494;28;20544;-81
2023/08/25 04:51:04;;;;;;;40.42;36.17;;;19.10;99.90;;;;;;5044559;28;20033;-80
2023/08/25 04:53:30;;;;;;;41.70;36.35;;;19.10;99.90;;;;;;5034917;28;20048;-80
2023/08/25 04:55:55;;;;;;;42.13;37.58;;;19.10;99.90;;;;;;5033930;28;20041;-80
2023/08/25 04:58:21;;;;;;;42.65;38.05;;;19.10;99.90;;;;;;5044764;28;20488;-80
2023/08/25 05:00:52;;;;;;;47.50;38.70;;;19.10;99.90;;;;;;5040137;28;20424;-80
2023/08/25 05:03:18;;;;;;;42.05;37.53;;;19.10;99.90;;;;;;5034180;28;20079;-81
2023/08/25 05:05:44;;;;;;;42.17;37.55;;;19.10;99.90;;;;;;5044155;28;20465;-80
2023/08/25 05:08:11;;;;;;;43.28;38.72;;;19.10;99.90;;;;;;5036674;28;20400;-81
2023/08/25 05:10:37;;;;;;;41.38;36.97;;;19.10;99.90;;;;;;5034388;28;20048;-80
2023/08/25 05:13:03;;;;;;;46.35;40.40;;;19.20;99.90;;;;;;5035960;28;20037;-80
2023/08/25 05:15:29;;;;;;;57.38;45.42;;;19.10;99.90;;;;;;5044579;28;20048;-80
2023/08/25 05:17:55;;;;;;;54.17;43.47;;;19.10;99.90;;;;;;5041494;28;20041;-81
2023/08/25 05:20:21;;;;;;;56.00;44.53;;;19.10;99.90;;;;;;5034987;28;20515;-81
2023/08/25 05:22:48;;;;;;;56.33;44.55;;;19.10;99.90;;;;;;5042951;28;20112;-80
2023/08/25 05:25:14;;;;;;;57.63;46.45;;;19.10;99.90;;;;;;5043713;28;20060;-81
2023/08/25 05:27:40;;;;;;;49.72;42.15;;;19.30;99.90;;;;;;5034474;28;20048;-81
2023/08/25 05:30:06;;;;;;;47.92;38.90;;;19.10;99.90;;;;;;5040585;28;20144;-81
2023/08/25 05:32:32;;;;;;;52.75;45.13;;;19.10;99.90;;;;;;5042854;28;20056;-81
2023/08/25 05:34:58;;;;;;;66.97;51.42;;;19.10;99.90;;;;;;5045940;28;20041;-82
2023/08/25 05:37:25;;;;;;;57.63;47.63;;;19.10;99.90;;;;;;5038010;28;20057;-80
2023/08/25 05:39:52;;;;;;;55.28;46.25;;;19.10;99.90;;;;;;5041932;28;20119;-81
2023/08/25 05:42:18;;;;;;;66.38;49.80;;;19.10;99.90;;;;;;5034128;28;20044;-81
2023/08/25 05:44:43;;;;;;;60.50;47.42;;;19.10;99.90;;;;;;5042860;28;20044;-81
2023/08/25 05:47:09;;;;;;;61.05;44.28;;;19.10;99.90;;;;;;5026098;28;20048;-81
2023/08/25 05:49:34;;;;;;;55.80;45.38;;;19.10;99.90;;;;;;5034248;28;20051;-81
2023/08/25 05:52:00;;;;;;;65.03;51.35;;;19.10;99.90;;;;;;5033882;28;20122;-80
2023/08/25 05:54:26;;;;;;;57.58;47.92;;;19.20;99.90;;;;;;5034059;28;20492;-81
2023/08/25 05:56:54;;;;;;;58.05;47.13;;;19.10;99.90;;;;;;5042072;28;20053;-80
2023/08/25 05:59:20;;;;;;;57.70;44.95;;;19.20;99.90;;;;;;5039642;28;20049;-80
2023/08/25 06:01:46;;;;;;;71.93;50.42;;;19.20;99.90;;;;;;5039719;28;20171;-79
2023/08/25 06:04:11;;;;;;;68.85;51.15;;;19.20;99.90;;;;;;5043313;28;20489;-80
2023/08/25 06:06:38;;;;;;;64.03;49.50;;;19.20;99.90;;;;;;5040768;28;20038;-80
2023/08/25 06:09:05;;;;;;;64.70;47.45;;;19.20;99.90;;;;;;5042260;28;20076;-80
2023/08/25 06:11:30;;;;;;;62.88;47.88;;;19.10;99.90;;;;;;5043282;28;20407;-80
2023/08/25 06:13:56;;;;;;;64.35;45.33;;;19.20;99.90;;;;;;5031078;28;20042;-79
2023/08/25 06:16:23;;;;;;;75.53;54.63;;;19.10;99.90;;;;;;5033734;28;20045;-80
2023/08/25 06:18:48;;;;;;;65.13;47.63;;;19.20;99.90;;;;;;5042654;28;20379;-80
2023/08/25 06:21:14;;;;;;;71.93;51.65;;;19.20;99.90;;;;;;5042546;28;20036;-80
2023/08/25 06:23:39;;;;;;;61.78;46.17;;;19.20;99.90;;;;;;5042748;28;20076;-80
2023/08/25 06:26:06;;;;;;;63.05;46.35;;;19.20;99.90;;;;;;5040681;28;20112;-79
2023/08/25 06:28:33;;;;;;;60.47;45.38;;;19.20;99.90;;;;;;5038683;28;20044;-79
2023/08/25 06:30:59;;;;;;;75.55;50.30;;;19.30;99.90;;;;;;5040320;28;20099;-80
2023/08/25 06:33:29;;;;;;;62.75;47.67;;;19.30;99.90;;;;;;5042691;28;20048;-79
2023/08/25 06:35:56;;;;;;;72.68;52.20;;;19.30;99.90;;;;;;5040668;28;20041;-79
2023/08/25 06:38:22;;;;;;;74.65;54.60;;;19.30;99.90;;;;;;5039455;28;20524;-79
2023/08/25 06:40:48;;;;;;;76.97;52.65;;;19.30;99.90;;;;;;5038863;28;20075;-79
2023/08/25 06:43:13;;;;;;;79.53;54.00;;;19.30;99.90;;;;;;5039453;28;20042;-80
2023/08/25 06:45:39;;;;;;;81.15;54.75;;;19.30;99.90;;;;;;5039155;28;20060;-79
2023/08/25 06:48:05;;;;;;;73.80;52.95;;;19.30;99.90;;;;;;5040442;28;20037;-80
2023/08/25 06:50:31;;;;;;;72.40;51.20;;;19.30;99.90;;;;;;5042627;28;20610;-79
2023/08/25 06:52:56;;;;;;;74.93;51.83;;;19.30;99.90;;;;;;5041584;28;20037;-80
2023/08/25 06:55:25;;;;;;;70.97;50.55;;;19.40;99.90;;;;;;5038797;28;20091;-79
2023/08/25 06:57:51;;;;;;;76.15;52.70;;;19.40;99.90;;;;;;5032355;28;20052;-79
2023/08/25 07:00:20;;;;;;;75.45;52.28;;;19.40;99.90;;;;;;5042519;28;20143;-80
2023/08/25 07:02:45;;;;;;;74.28;51.22;;;19.40;99.90;;;;;;5041406;28;20061;-79
2023/08/25 07:05:12;;;;;;;82.57;55.65;;;19.40;99.90;;;;;;5040266;28;20103;-79
2023/08/25 07:07:38;;;;;;;74.28;53.42;;;19.40;99.90;;;;;;5039274;28;20038;-79
2023/08/25 07:10:05;;;;;;;74.03;52.08;;;19.40;99.90;;;;;;5043004;28;20045;-80
2023/08/25 07:12:31;;;;;;;66.90;51.10;;;19.40;99.90;;;;;;5050136;28;20036;-79
2023/08/25 07:14:56;;;;;;;68.72;50.03;;;19.40;99.90;;;;;;5045747;28;20084;-80
2023/08/25 07:17:22;;;;;;;72.15;50.67;;;19.40;99.90;;;;;;5042250;28;20087;-80
2023/08/25 07:19:48;;;;;;;67.25;51.72;;;19.50;99.90;;;;;;5042184;28;20040;-80
2023/08/25 07:22:14;;;;;;;79.63;54.40;;;19.50;99.90;;;;;;5038072;28;20064;-79
2023/08/25 07:24:39;;;;;;;69.28;50.25;;;19.50;99.90;;;;;;5038664;28;20045;-79
2023/08/25 07:27:05;;;;;;;67.22;50.50;;;19.50;99.90;;;;;;5040445;28;20116;-80
2023/08/25 07:29:31;;;;;;;67.40;49.17;;;19.50;99.90;;;;;;5042257;28;20041;-79
2023/08/25 07:31:56;;;;;;;85.78;56.53;;;19.60;99.90;;;;;;5031300;28;20055;-80
2023/08/25 07:34:22;;;;;;;69.28;48.28;;;19.50;99.90;;;;;;5039093;28;20382;-80
2023/08/25 07:36:48;;;;;;;71.57;51.15;;;19.50;99.90;;;;;;5038462;28;20071;-80
2023/08/25 07:39:13;;;;;;;74.70;51.85;;;19.60;99.90;;;;;;5040749;28;20041;-82
2023/08/25 07:41:39;;;;;;;75.07;52.15;;;19.50;99.90;;;;;;5032936;28;20470;-83
2023/08/25 07:44:07;;;;;;;67.40;48.83;;;19.50;99.90;;;;;;5041556;28;20049;-82
2023/08/25 07:46:37;;;;;;;76.95;54.10;;;19.50;99.90;;;;;;5043042;28;20465;-82
2023/08/25 07:49:03;;;;;;;72.88;50.22;;;19.80;99.90;;;;;;5036232;28;20036;-82
2023/08/25 07:51:29;;;;;;;68.15;51.08;;;19.60;99.90;;;;;;5045577;28;20156;-81
2023/08/25 07:53:54;;;;;;;67.97;49.13;;;19.60;99.90;;;;;;5035775;28;20056;-82
2023/08/25 07:56:20;;;;;;;69.40;49.25;;;19.60;99.90;;;;;;5036689;28;20120;-83
2023/08/25 07:58:45;;;;;;;67.53;51.03;;;19.60;99.90;;;;;;5044479;28;20048;-81
2023/08/25 08:01:11;;;;;;;65.88;48.60;;;19.60;99.90;;;;;;5044282;28;20063;-85
2023/08/25 08:03:37;;;;;;;60.85;45.10;;;20.30;99.90;;;;;;5019193;28;20465;-82
2023/08/25 08:06:02;;;;;;;53.80;41.30;;;19.70;99.90;;;;;;5044772;28;20120;-83
2023/08/25 08:08:28;;;;;;;55.35;37.97;;;19.70;99.90;;;;;;5036248;28;20079;-82
2023/08/25 08:10:54;;;;;;;51.45;37.47;;;19.70;99.90;;;;;;5045263;28;20526;-83
2023/08/25 08:13:19;;;;;;;51.20;38.35;;;19.70;99.90;;;;;;5044484;28;20203;-82
2023/08/25 08:15:45;;;;;;;49.05;38.53;;;19.80;99.90;;;;;;5044004;28;20393;-82
2023/08/25 08:18:11;;;;;;;44.10;34.17;;;19.80;99.90;;;;;;5043064;28;20423;-81
2023/08/25 08:20:37;;;;;;;44.05;35.03;;;19.80;99.90;;;;;;5034520;28;20041;-81
2023/08/25 08:23:03;;;;;;;49.45;37.22;;;19.80;99.90;;;;;;5041820;28;20155;-82
2023/08/25 08:25:30;;;;;;;46.90;36.00;;;19.80;99.90;;;;;;5037317;28;20049;-82
2023/08/25 08:27:57;;;;;;;47.55;37.03;;;20.00;99.90;;;;;;5047809;28;20037;-82
2023/08/25 08:30:22;;;;;;;49.08;36.70;;;19.80;99.90;;;;;;5041692;28;20049;-82
2023/08/25 08:32:49;;;;;;;51.63;37.40;;;19.90;99.90;;;;;;5042258;28;20053;-81
2023/08/25 08:35:15;;;;;;;47.17;36.10;;;19.90;99.90;;;;;;5051206;28;20044;-81
2023/08/25 08:37:41;;;;;;;48.97;35.53;;;19.90;99.90;;;;;;5041381;28;20076;-81
2023/08/25 08:40:10;;;;;;;51.35;37.42;;;19.90;99.90;;;;;;5044711;28;20461;-81
2023/08/25 08:42:37;;;;;;;48.60;37.38;;;19.90;99.90;;;;;;5043734;28;20033;-81
2023/08/25 08:45:08;;;;;;;46.28;36.33;;;19.90;99.90;;;;;;5034556;28;20041;-81
2023/08/25 08:47:37;;;;;;;45.50;36.65;;;19.90;99.90;;;;;;5029833;28;20370;-84
2023/08/25 08:50:06;;;;;;;43.38;34.47;;;20.00;99.90;;;;;;5054007;28;20499;-82
2023/08/25 08:52:32;;;;;;;46.28;33.75;;;20.00;99.90;;;;;;5036637;28;20045;-82
2023/08/25 08:54:59;;;;;;;44.20;32.00;;;20.10;99.90;;;;;;5035082;28;20041;-85
2023/08/25 08:57:31;;;;;;;42.78;32.10;;;20.10;99.90;;;;;;5043370;28;20099;-80
2023/08/25 09:00:03;;;;;;;39.83;32.65;;;20.10;99.90;;;;;;5034054;28;20045;-86
2023/08/25 09:02:29;;;;;;;40.58;32.65;;;20.10;99.90;;;;;;5035115;28;20072;-86
2023/08/25 09:04:59;;;;;;;38.83;30.45;;;20.10;99.90;;;;;;5033055;28;20064;-83
2023/08/25 09:07:31;;;;;;;43.22;32.38;;;20.10;99.90;;;;;;5040381;28;20037;-82
2023/08/25 09:09:59;;;;;;;42.10;32.78;;;20.10;99.90;;;;;;5033395;28;20029;-84
2023/08/25 09:12:25;;;;;;;45.63;33.95;;;20.20;99.90;;;;;;5044009;28;20409;-82
2023/08/25 09:14:50;;;;;;;52.20;36.25;;;20.20;99.90;;;;;;5044170;28;20041;-83
2023/08/25 09:17:16;;;;;;;41.50;32.88;;;20.20;99.90;;;;;;5034937;28;20126;-83
2023/08/25 09:19:42;;;;;;;41.92;32.70;;;20.20;99.90;;;;;;5046585;28;20033;-82
2023/08/25 09:22:15;;;;;;;45.45;35.75;;;20.20;99.90;;;;;;5030338;28;20052;-84
2023/08/25 09:24:43;;;;;;;39.47;32.45;;;20.20;99.90;;;;;;5037484;28;20095;-84
2023/08/25 09:27:25;;;;;;;46.35;35.78;;;20.20;99.90;;;;;;5042287;28;20044;-80
2023/08/25 09:30:06;;;;;;;45.40;35.42;;;20.20;99.90;;;;;;5034977;28;20099;-83
2023/08/25 09:32:32;;;;;;;41.95;34.53;;;20.20;99.90;;;;;;5038684;28;20057;-86
2023/08/25 09:35:12;;;;;;;47.75;35.67;;;20.20;99.90;;;;;;5049847;28;20041;-85
2023/08/25 09:37:42;;;;;;;44.63;36.90;;;20.20;99.90;;;;;;5038395;28;20489;-85
2023/08/25 09:40:27;;;;;;;46.65;36.55;;;20.20;99.90;;;;;;5029232;28;20094;-84
2023/08/25 09:42:58;;;;;;;46.03;34.67;;;20.20;99.90;;;;;;5044707;28;20033;-86
2023/08/25 09:45:27;;;;;;;44.28;34.38;;;20.20;99.90;;;;;;5034954;28;20045;-86
2023/08/25 09:47:53;;;;;;;47.92;35.83;;;20.20;99.90;;;;;;5039676;28;20045;-86
2023/08/25 09:50:19;;;;;;;57.83;39.05;;;20.20;99.90;;;;;;5047091;28;20060;-81
2023/08/25 09:52:48;;;;;;;51.03;37.22;;;20.20;99.90;;;;;;5034779;28;20084;-82
2023/08/25 09:55:15;;;;;;;45.95;36.72;;;20.20;99.90;;;;;;5044860;28;20045;-83
2023/08/25 09:57:45;;;;;;;48.40;37.53;;;20.30;99.90;;;;;;5035264;28;20048;-85
2023/08/25 10:00:11;;;;;;;52.92;38.55;;;20.30;99.90;;;;;;5032668;28;20885;-85
2023/08/25 10:02:37;;;;;;;45.65;35.30;;;20.30;99.90;;;;;;5029598;28;20041;-83
2023/08/25 10:05:04;;;;;;;48.25;37.53;;;20.30;99.90;;;;;;5037301;28;20033;-85
2023/08/25 10:07:31;;;;;;;50.92;38.28;;;20.30;99.90;;;;;;5042028;28;20378;-84
2023/08/25 10:09:57;;;;;;;48.40;35.83;;;20.30;99.90;;;;;;5033035;28;20048;-82
2023/08/25 10:12:24;;;;;;;44.30;36.50;;;20.30;99.90;;;;;;5041518;28;20052;-83
2023/08/25 10:14:52;;;;;;;44.25;35.53;;;20.30;99.90;;;;;;5039056;28;20056;-82
2023/08/25 10:17:19;;;;;;;49.33;37.63;;;20.30;99.90;;;;;;5039569;28;20460;-81
2023/08/25 10:19:48;;;;;;;51.25;36.83;;;20.30;99.90;;;;;;5040989;28;20041;-81
2023/08/25 10:22:14;;;;;;;46.22;35.70;;;20.30;99.90;;;;;;5039943;28;20041;-81
2023/08/25 10:24:41;;;;;;;49.72;37.20;;;20.30;99.90;;;;;;5033987;28;20041;-81
2023/08/25 10:27:08;;;;;;;50.13;37.13;;;20.30;99.90;;;;;;5040717;28;20049;-81
2023/08/25 10:29:33;;;;;;;48.15;36.80;;;20.30;99.90;;;;;;5044455;28;20124;-80
2023/08/25 10:32:03;;;;;;;56.17;40.17;;;20.20;99.90;;;;;;5039132;28;20417;-80
2023/08/25 10:34:37;;;;;;;50.83;38.72;;;20.30;99.90;;;;;;5040327;28;20060;-80
2023/08/25 10:37:21;;;;;;;49.88;37.78;;;20.20;99.90;;;;;;5043405;28;20119;-81
2023/08/25 10:39:59;;;;;;;39.45;33.38;;;20.30;99.90;;;;;;5033266;28;20040;-81
2023/08/25 10:42:33;;;;;;;38.53;32.35;;;20.20;99.90;;;;;;5036098;28;20052;-81
2023/08/25 10:45:03;;;;;;;;;;;20.30;99.90;;;;;;5032967;28;20481;-81
2023/08/25 10:47:29;;;;;;;41.13;36.15;;;20.30;99.90;;;;;;5040658;28;19921;-81
2023/08/25 10:49:59;;;;;;;37.95;32.40;;;20.30;99.90;;;;;;5039499;28;20375;-81
2023/08/25 10:52:25;;;;;;;41.20;33.83;;;20.50;99.90;;;;;;5034675;28;20088;-82
2023/08/25 10:54:53;;;;;;;44.47;32.72;;;20.30;99.90;;;;;;5037647;28;20461;-82
2023/08/25 10:57:27;;;;;;;46.08;34.85;;;20.20;99.90;;;;;;5032471;28;20542;-82
2023/08/25 11:00:16;;;;;;;45.65;35.85;;;20.30;99.90;;;;;;5042441;28;20072;-82
2023/08/25 11:02:42;;;;;;;51.70;38.05;;;20.30;99.90;;;;;;5040223;28;20045;-82
2023/08/25 11:05:26;;;;;;;43.92;35.67;;;20.30;99.90;;;;;;5043831;28;20121;-81
2023/08/25 11:07:53;;;;;;;42.65;37.05;;;20.30;99.90;;;;;;5045713;28;20399;-82
2023/08/25 11:10:22;;;;;;;41.35;36.35;;;20.30;99.90;;;;;;5045864;28;20392;-82
2023/08/25 11:12:53;;;;;;;48.15;35.55;;;20.30;99.90;;;;;;5048429;28;20116;-82
2023/08/25 11:15:19;;;;;;;50.13;39.00;;;20.30;99.90;;;;;;5044245;28;20041;-82
2023/08/25 11:17:45;;;;;;;44.10;36.03;;;20.30;99.90;;;;;;5045839;28;20124;-82
2023/08/25 11:20:12;;;;;;;45.38;36.90;;;20.30;99.90;;;;;;5031543;28;20509;-81
2023/08/25 11:22:57;;;;;;;50.42;38.53;;;20.40;99.90;;;;;;5049084;28;20037;-81
2023/08/25 11:25:27;;;;;;;43.38;37.80;;;20.30;99.90;;;;;;5034655;28;20049;-81
2023/08/25 11:27:54;;;;;;;45.80;37.55;;;20.30;99.90;;;;;;5034430;28;20051;-80
2023/08/25 11:30:21;;;;;;;51.08;38.03;;;20.30;99.90;;;;;;5049213;28;20095;-80
2023/08/25 11:32:47;;;;;;;47.17;37.42;;;20.30;99.90;;;;;;5050047;28;20131;-80
2023/08/25 11:35:13;;;;;;;43.90;35.78;;;20.30;99.90;;;;;;5051397;28;20080;-80
2023/08/25 11:37:40;;;;;;;44.78;36.03;;;20.30;99.90;;;;;;5034803;28;20088;-80
2023/08/25 11:40:12;;;;;;;45.17;36.30;;;20.30;99.90;;;;;;5050784;28;20053;-88
2023/08/25 11:42:40;;;;;;;47.67;36.55;;;20.30;99.90;;;;;;5049159;28;20874;-86
2023/08/25 11:45:13;;;;;;;44.22;35.60;;;20.40;99.90;;;;;;5044371;28;20087;-82
2023/08/25 11:47:39;;;;;;;43.83;34.97;;;20.40;99.90;;;;;;5048567;28;20063;-82
2023/08/25 11:50:06;;;;;;;41.38;33.53;;;20.40;99.90;;;;;;5052866;28;20098;-80
2023/08/25 11:52:33;;;;;;;38.30;32.25;;;20.40;99.90;;;;;;5049024;28;20041;-81
2023/08/25 11:54:59;;;;;;;35.00;31.23;;;20.50;99.90;;;;;;5035758;28;20041;-83
2023/08/25 11:57:38;;;;;;;44.20;34.40;;;20.50;99.90;;;;;;5049647;28;20515;-80
2023/08/25 12:00:05;;;;;;;39.63;32.35;;;20.50;99.90;;;;;;5037234;28;20056;-83
2023/08/25 12:02:32;;;;;;;40.78;34.50;;;20.60;99.90;;;;;;5049088;28;20033;-80
2023/08/25 12:05:02;;;;;;;44.63;34.75;;;20.70;99.90;;;;;;5053418;28;20037;-79
2023/08/25 12:07:32;;;;;;;48.05;37.45;;;20.80;99.90;;;;;;5051765;28;20083;-80
2023/08/25 12:09:58;;;;;;;52.92;41.80;;;20.80;99.90;;;;;;5046373;28;20398;-84
2023/08/25 12:12:25;;;;;;;45.35;37.28;;;20.90;99.90;;;;;;5045552;28;20066;-82
2023/08/25 12:14:52;;;;;;;45.83;39.35;;;20.90;99.90;;;;;;5045401;28;20037;-83
2023/08/25 12:17:25;;;;;;;47.83;38.58;;;20.90;99.90;;;;;;5041706;28;20386;-82
2023/08/25 12:19:50;;;;;;;44.50;36.33;;;20.90;99.90;;;;;;5044861;28;20148;-83
2023/08/25 12:22:16;;;;;;;48.30;36.38;;;21.00;99.90;;;;;;5035541;28;20113;-84
2023/08/25 12:24:43;;;;;;;46.88;38.30;;;21.00;99.90;;;;;;5043967;28;20507;-83
2023/08/25 12:27:08;;;;;;;41.53;36.83;;;21.10;99.90;;;;;;5034959;28;20527;-82
2023/08/25 12:29:34;;;;;;;39.78;33.55;;;21.10;99.90;;;;;;5050714;28;20065;-83